sensor_id;sensor_type;location;lat;lon;timestamp;P1;durP1;ratioP1;P2;durP2;ratioP2
21198;SDS011;10757;51.038;3.712;2022-08-04T00:01:18;11.65;;;3.05;;
21198;SDS011;10757;51.038;3.712;2022-08-04T00:03:57;10.23;;;3.75;;
21198;SDS011;10757;51.038;3.712;2022-08-04T00:12:03;12.15;;;3.03;;
21198;SDS011;10757;51.038;3.712;2022-08-04T00:14:37;10.18;;;2.70;;
21198;SDS011;10757;51.038;3.712;2022-08-04T00:17:09;13.77;;;3.60;;
21198;SDS011;10757;51.038;3.712;2022-08-04T00:19:46;10.63;;;3.00;;
21198;SDS011;10757;51.038;3.712;2022-08-04T00:22:14;8.75;;;2.72;;
21198;SDS011;10757;51.038;3.712;2022-08-04T00:24:47;10.02;;;2.88;;
21198;SDS011;10757;51.038;3.712;2022-08-04T00:27:15;8.27;;;2.42;;
21198;SDS011;10757;51.038;3.712;2022-08-04T00:29:42;8.27;;;2.53;;
21198;SDS011;10757;51.038;3.712;2022-08-04T00:32:14;10.93;;;2.60;;
21198;SDS011;10757;51.038;3.712;2022-08-04T00:34:42;14.32;;;3.00;;
21198;SDS011;10757;51.038;3.712;2022-08-04T00:37:08;7.88;;;2.60;;
21198;SDS011;10757;51.038;3.712;2022-08-04T00:39:35;8.07;;;2.45;;
21198;SDS011;10757;51.038;3.712;2022-08-04T00:44:53;6.75;;;2.53;;
21198;SDS011;10757;51.038;3.712;2022-08-04T00:50:44;6.90;;;2.35;;
21198;SDS011;10757;51.038;3.712;2022-08-04T00:53:39;10.70;;;2.67;;
21198;SDS011;10757;51.038;3.712;2022-08-04T00:56:25;10.25;;;2.47;;
21198;SDS011;10757;51.038;3.712;2022-08-04T00:59:30;10.68;;;3.15;;
21198;SDS011;10757;51.038;3.712;2022-08-04T01:02:09;13.35;;;3.30;;
21198;SDS011;10757;51.038;3.712;2022-08-04T01:16:02;8.32;;;2.90;;
21198;SDS011;10757;51.038;3.712;2022-08-04T01:18:43;9.57;;;3.45;;
21198;SDS011;10757;51.038;3.712;2022-08-04T01:32:51;6.47;;;2.78;;
21198;SDS011;10757;51.038;3.712;2022-08-04T01:35:23;10.60;;;3.00;;
21198;SDS011;10757;51.038;3.712;2022-08-04T01:37:59;11.88;;;3.78;;
21198;SDS011;10757;51.038;3.712;2022-08-04T01:40:31;9.93;;;2.80;;
21198;SDS011;10757;51.038;3.712;2022-08-04T01:43:01;7.90;;;2.80;;
21198;SDS011;10757;51.038;3.712;2022-08-04T01:45:30;9.27;;;3.30;;
21198;SDS011;10757;51.038;3.712;2022-08-04T01:47:58;8.25;;;2.80;;
21198;SDS011;10757;51.038;3.712;2022-08-04T01:50:27;8.50;;;2.97;;
21198;SDS011;10757;51.038;3.712;2022-08-04T01:52:58;9.15;;;2.95;;
21198;SDS011;10757;51.038;3.712;2022-08-04T01:55:29;10.10;;;3.10;;
21198;SDS011;10757;51.038;3.712;2022-08-04T01:57:59;10.40;;;3.50;;
21198;SDS011;10757;51.038;3.712;2022-08-04T02:00:29;8.05;;;3.13;;
21198;SDS011;10757;51.038;3.712;2022-08-04T02:02:55;7.68;;;2.63;;
21198;SDS011;10757;51.038;3.712;2022-08-04T02:08:19;10.38;;;3.13;;
21198;SDS011;10757;51.038;3.712;2022-08-04T02:11:14;9.25;;;2.50;;
21198;SDS011;10757;51.038;3.712;2022-08-04T02:21:38;10.23;;;3.33;;
21198;SDS011;10757;51.038;3.712;2022-08-04T02:24:06;11.15;;;2.97;;
21198;SDS011;10757;51.038;3.712;2022-08-04T02:26:39;8.85;;;2.95;;
21198;SDS011;10757;51.038;3.712;2022-08-04T02:29:10;9.85;;;2.78;;
21198;SDS011;10757;51.038;3.712;2022-08-04T02:31:40;8.80;;;3.20;;
21198;SDS011;10757;51.038;3.712;2022-08-04T02:34:36;8.15;;;2.72;;
21198;SDS011;10757;51.038;3.712;2022-08-04T02:37:21;10.70;;;4.00;;
21198;SDS011;10757;51.038;3.712;2022-08-04T02:39:51;8.68;;;3.72;;
21198;SDS011;10757;51.038;3.712;2022-08-04T02:42:17;11.05;;;3.50;;
21198;SDS011;10757;51.038;3.712;2022-08-04T02:44:47;8.65;;;3.33;;
21198;SDS011;10757;51.038;3.712;2022-08-04T02:47:14;11.07;;;3.40;;
21198;SDS011;10757;51.038;3.712;2022-08-04T02:49:44;9.48;;;2.90;;
21198;SDS011;10757;51.038;3.712;2022-08-04T02:52:10;12.30;;;2.80;;
21198;SDS011;10757;51.038;3.712;2022-08-04T02:54:39;11.70;;;2.90;;
21198;SDS011;10757;51.038;3.712;2022-08-04T02:57:10;7.78;;;3.00;;
21198;SDS011;10757;51.038;3.712;2022-08-04T03:02:40;10.00;;;2.80;;
21198;SDS011;10757;51.038;3.712;2022-08-04T03:05:12;10.13;;;3.10;;
21198;SDS011;10757;51.038;3.712;2022-08-04T03:21:47;9.80;;;2.70;;
21198;SDS011;10757;51.038;3.712;2022-08-04T03:37:21;13.75;;;3.60;;
21198;SDS011;10757;51.038;3.712;2022-08-04T03:43:11;12.48;;;3.45;;
21198;SDS011;10757;51.038;3.712;2022-08-04T03:45:43;9.93;;;3.28;;
21198;SDS011;10757;51.038;3.712;2022-08-04T03:54:57;9.05;;;3.40;;
21198;SDS011;10757;51.038;3.712;2022-08-04T04:19:20;13.18;;;4.72;;
21198;SDS011;10757;51.038;3.712;2022-08-04T04:30:16;10.65;;;4.78;;
21198;SDS011;10757;51.038;3.712;2022-08-04T04:33:32;11.15;;;5.13;;
21198;SDS011;10757;51.038;3.712;2022-08-04T04:35:40;15.57;;;5.60;;
21198;SDS011;10757;51.038;3.712;2022-08-04T04:38:20;11.60;;;5.28;;
21198;SDS011;10757;51.038;3.712;2022-08-04T04:43:56;10.10;;;4.40;;
21198;SDS011;10757;51.038;3.712;2022-08-04T04:49:39;11.68;;;4.80;;
21198;SDS011;10757;51.038;3.712;2022-08-04T04:52:39;13.30;;;5.90;;
21198;SDS011;10757;51.038;3.712;2022-08-04T04:55:39;9.50;;;5.93;;
21198;SDS011;10757;51.038;3.712;2022-08-04T04:58:10;16.42;;;6.65;;
21198;SDS011;10757;51.038;3.712;2022-08-04T05:09:30;27.80;;;14.23;;
21198;SDS011;10757;51.038;3.712;2022-08-04T05:15:12;26.27;;;17.10;;
21198;SDS011;10757;51.038;3.712;2022-08-04T05:20:20;26.02;;;16.00;;
21198;SDS011;10757;51.038;3.712;2022-08-04T05:22:58;31.25;;;15.75;;
21198;SDS011;10757;51.038;3.712;2022-08-04T05:25:44;31.65;;;17.83;;
21198;SDS011;10757;51.038;3.712;2022-08-04T05:28:25;29.35;;;16.75;;
21198;SDS011;10757;51.038;3.712;2022-08-04T05:31:01;32.03;;;17.35;;
21198;SDS011;10757;51.038;3.712;2022-08-04T05:33:36;30.38;;;17.35;;
21198;SDS011;10757;51.038;3.712;2022-08-04T05:36:06;33.92;;;16.98;;
21198;SDS011;10757;51.038;3.712;2022-08-04T05:38:38;31.73;;;17.85;;
21198;SDS011;10757;51.038;3.712;2022-08-04T05:41:07;28.85;;;18.58;;
21198;SDS011;10757;51.038;3.712;2022-08-04T05:46:14;29.40;;;18.75;;
21198;SDS011;10757;51.038;3.712;2022-08-04T05:48:41;31.80;;;18.98;;
21198;SDS011;10757;51.038;3.712;2022-08-04T05:51:09;31.83;;;19.80;;
21198;SDS011;10757;51.038;3.712;2022-08-04T05:53:35;33.90;;;19.48;;
21198;SDS011;10757;51.038;3.712;2022-08-04T05:56:03;30.40;;;19.63;;
21198;SDS011;10757;51.038;3.712;2022-08-04T05:58:30;30.42;;;18.83;;
21198;SDS011;10757;51.038;3.712;2022-08-04T06:01:00;35.15;;;19.35;;
21198;SDS011;10757;51.038;3.712;2022-08-04T06:03:30;31.00;;;18.70;;
21198;SDS011;10757;51.038;3.712;2022-08-04T06:05:58;29.50;;;18.35;;
21198;SDS011;10757;51.038;3.712;2022-08-04T06:08:24;23.85;;;17.20;;
21198;SDS011;10757;51.038;3.712;2022-08-04T06:10:51;22.83;;;16.30;;
21198;SDS011;10757;51.038;3.712;2022-08-04T06:13:22;29.45;;;16.77;;
21198;SDS011;10757;51.038;3.712;2022-08-04T06:15:56;27.20;;;16.17;;
21198;SDS011;10757;51.038;3.712;2022-08-04T06:18:25;22.83;;;15.65;;
21198;SDS011;10757;51.038;3.712;2022-08-04T06:20:53;21.33;;;14.65;;
21198;SDS011;10757;51.038;3.712;2022-08-04T06:23:22;19.25;;;14.38;;
21198;SDS011;10757;51.038;3.712;2022-08-04T06:25:54;21.40;;;14.18;;
21198;SDS011;10757;51.038;3.712;2022-08-04T06:28:23;19.63;;;13.88;;
21198;SDS011;10757;51.038;3.712;2022-08-04T06:30:51;20.20;;;13.35;;
21198;SDS011;10757;51.038;3.712;2022-08-04T06:33:19;17.33;;;12.20;;
21198;SDS011;10757;51.038;3.712;2022-08-04T06:35:57;18.05;;;12.52;;
21198;SDS011;10757;51.038;3.712;2022-08-04T06:38:26;16.23;;;12.23;;
21198;SDS011;10757;51.038;3.712;2022-08-04T06:40:53;16.17;;;11.80;;
21198;SDS011;10757;51.038;3.712;2022-08-04T06:43:24;17.25;;;11.07;;
21198;SDS011;10757;51.038;3.712;2022-08-04T06:45:52;16.27;;;11.18;;
21198;SDS011;10757;51.038;3.712;2022-08-04T06:48:19;16.65;;;12.25;;
21198;SDS011;10757;51.038;3.712;2022-08-04T06:50:47;12.35;;;9.50;;
21198;SDS011;10757;51.038;3.712;2022-08-04T06:53:14;13.40;;;9.27;;
21198;SDS011;10757;51.038;3.712;2022-08-04T06:55:44;15.98;;;10.10;;
21198;SDS011;10757;51.038;3.712;2022-08-04T06:58:11;14.85;;;9.68;;
21198;SDS011;10757;51.038;3.712;2022-08-04T07:00:39;14.75;;;9.32;;
21198;SDS011;10757;51.038;3.712;2022-08-04T07:03:07;14.80;;;8.52;;
21198;SDS011;10757;51.038;3.712;2022-08-04T07:05:33;15.30;;;10.20;;
21198;SDS011;10757;51.038;3.712;2022-08-04T07:07:59;11.98;;;8.52;;
21198;SDS011;10757;51.038;3.712;2022-08-04T07:10:28;14.38;;;8.65;;
21198;SDS011;10757;51.038;3.712;2022-08-04T07:13:11;13.85;;;8.88;;
21198;SDS011;10757;51.038;3.712;2022-08-04T07:18:10;15.05;;;9.50;;
21198;SDS011;10757;51.038;3.712;2022-08-04T07:20:39;14.40;;;9.80;;
21198;SDS011;10757;51.038;3.712;2022-08-04T07:23:11;18.20;;;10.07;;
21198;SDS011;10757;51.038;3.712;2022-08-04T07:25:41;13.35;;;10.95;;
21198;SDS011;10757;51.038;3.712;2022-08-04T07:28:08;15.43;;;9.50;;
21198;SDS011;10757;51.038;3.712;2022-08-04T07:30:34;16.55;;;9.93;;
21198;SDS011;10757;51.038;3.712;2022-08-04T07:33:02;14.82;;;9.68;;
21198;SDS011;10757;51.038;3.712;2022-08-04T07:35:29;15.35;;;9.35;;
21198;SDS011;10757;51.038;3.712;2022-08-04T07:37:55;15.75;;;9.52;;
21198;SDS011;10757;51.038;3.712;2022-08-04T07:40:22;16.45;;;8.60;;
21198;SDS011;10757;51.038;3.712;2022-08-04T07:42:49;21.58;;;9.15;;
21198;SDS011;10757;51.038;3.712;2022-08-04T07:45:16;15.95;;;8.70;;
21198;SDS011;10757;51.038;3.712;2022-08-04T07:47:44;12.35;;;7.95;;
21198;SDS011;10757;51.038;3.712;2022-08-04T07:50:10;10.93;;;7.40;;
21198;SDS011;10757;51.038;3.712;2022-08-04T07:52:37;11.82;;;7.35;;
21198;SDS011;10757;51.038;3.712;2022-08-04T07:55:02;11.52;;;7.40;;
21198;SDS011;10757;51.038;3.712;2022-08-04T07:57:29;13.75;;;6.53;;
21198;SDS011;10757;51.038;3.712;2022-08-04T07:59:55;13.55;;;6.60;;
21198;SDS011;10757;51.038;3.712;2022-08-04T08:02:21;11.73;;;6.80;;
21198;SDS011;10757;51.038;3.712;2022-08-04T08:04:48;9.02;;;6.65;;
21198;SDS011;10757;51.038;3.712;2022-08-04T08:07:17;12.82;;;7.00;;
21198;SDS011;10757;51.038;3.712;2022-08-04T08:09:44;9.60;;;6.53;;
21198;SDS011;10757;51.038;3.712;2022-08-04T08:12:12;9.50;;;5.95;;
21198;SDS011;10757;51.038;3.712;2022-08-04T08:14:38;11.45;;;6.13;;
21198;SDS011;10757;51.038;3.712;2022-08-04T08:17:04;12.43;;;6.35;;
21198;SDS011;10757;51.038;3.712;2022-08-04T08:19:31;9.15;;;5.60;;
21198;SDS011;10757;51.038;3.712;2022-08-04T08:21:59;11.13;;;6.68;;
21198;SDS011;10757;51.038;3.712;2022-08-04T08:24:31;12.30;;;6.28;;
21198;SDS011;10757;51.038;3.712;2022-08-04T08:27:00;8.73;;;5.65;;
21198;SDS011;10757;51.038;3.712;2022-08-04T08:29:32;9.02;;;5.90;;
21198;SDS011;10757;51.038;3.712;2022-08-04T08:32:01;12.30;;;6.80;;
21198;SDS011;10757;51.038;3.712;2022-08-04T08:34:28;13.95;;;6.70;;
21198;SDS011;10757;51.038;3.712;2022-08-04T08:37:01;10.98;;;6.47;;
21198;SDS011;10757;51.038;3.712;2022-08-04T08:39:48;9.68;;;5.70;;
21198;SDS011;10757;51.038;3.712;2022-08-04T08:45:13;9.88;;;6.95;;
21198;SDS011;10757;51.038;3.712;2022-08-04T08:50:19;9.68;;;6.00;;
21198;SDS011;10757;51.038;3.712;2022-08-04T09:01:55;16.85;;;6.80;;
21198;SDS011;10757;51.038;3.712;2022-08-04T09:05:14;14.43;;;7.63;;
21198;SDS011;10757;51.038;3.712;2022-08-04T09:08:16;8.98;;;6.97;;
21198;SDS011;10757;51.038;3.712;2022-08-04T09:11:03;17.67;;;9.73;;
21198;SDS011;10757;51.038;3.712;2022-08-04T09:16:55;11.82;;;7.88;;
21198;SDS011;10757;51.038;3.712;2022-08-04T09:19:27;14.27;;;9.57;;
21198;SDS011;10757;51.038;3.712;2022-08-04T09:21:58;12.68;;;7.93;;
21198;SDS011;10757;51.038;3.712;2022-08-04T09:24:56;12.43;;;8.63;;
21198;SDS011;10757;51.038;3.712;2022-08-04T09:27:31;17.08;;;8.77;;
21198;SDS011;10757;51.038;3.712;2022-08-04T09:30:26;11.10;;;7.90;;
21198;SDS011;10757;51.038;3.712;2022-08-04T09:33:06;12.88;;;6.90;;
21198;SDS011;10757;51.038;3.712;2022-08-04T09:35:46;11.98;;;5.60;;
21198;SDS011;10757;51.038;3.712;2022-08-04T09:38:24;12.10;;;6.50;;
21198;SDS011;10757;51.038;3.712;2022-08-04T09:41:23;13.82;;;6.32;;
21198;SDS011;10757;51.038;3.712;2022-08-04T09:55:30;8.32;;;4.75;;
21198;SDS011;10757;51.038;3.712;2022-08-04T10:01:08;10.35;;;6.20;;
21198;SDS011;10757;51.038;3.712;2022-08-04T10:03:38;10.98;;;4.90;;
21198;SDS011;10757;51.038;3.712;2022-08-04T10:12:14;8.25;;;4.55;;
21198;SDS011;10757;51.038;3.712;2022-08-04T10:20:44;10.20;;;3.85;;
21198;SDS011;10757;51.038;3.712;2022-08-04T10:23:20;10.27;;;4.18;;
21198;SDS011;10757;51.038;3.712;2022-08-04T10:28:28;13.60;;;5.03;;
21198;SDS011;10757;51.038;3.712;2022-08-04T10:30:58;9.60;;;4.22;;
21198;SDS011;10757;51.038;3.712;2022-08-04T10:33:32;9.02;;;4.10;;
21198;SDS011;10757;51.038;3.712;2022-08-04T10:36:08;8.20;;;4.15;;
21198;SDS011;10757;51.038;3.712;2022-08-04T10:38:45;7.20;;;3.45;;
21198;SDS011;10757;51.038;3.712;2022-08-04T10:41:24;8.73;;;3.08;;
21198;SDS011;10757;51.038;3.712;2022-08-04T10:46:50;13.13;;;5.35;;
21198;SDS011;10757;51.038;3.712;2022-08-04T10:49:36;6.22;;;3.38;;
21198;SDS011;10757;51.038;3.712;2022-08-04T10:57:48;8.57;;;2.75;;
21198;SDS011;10757;51.038;3.712;2022-08-04T11:00:29;9.02;;;3.33;;
21198;SDS011;10757;51.038;3.712;2022-08-04T11:05:48;6.63;;;2.30;;
21198;SDS011;10757;51.038;3.712;2022-08-04T11:08:26;7.05;;;2.42;;
21198;SDS011;10757;51.038;3.712;2022-08-04T11:13:46;9.77;;;3.38;;
21198;SDS011;10757;51.038;3.712;2022-08-04T11:16:22;11.95;;;2.95;;
21198;SDS011;10757;51.038;3.712;2022-08-04T11:19:04;7.05;;;2.30;;
21198;SDS011;10757;51.038;3.712;2022-08-04T11:21:54;6.80;;;2.75;;
21198;SDS011;10757;51.038;3.712;2022-08-04T11:24:24;11.00;;;2.40;;
21198;SDS011;10757;51.038;3.712;2022-08-04T11:27:01;7.05;;;2.25;;
21198;SDS011;10757;51.038;3.712;2022-08-04T11:32:01;8.32;;;3.33;;
21198;SDS011;10757;51.038;3.712;2022-08-04T11:34:28;12.38;;;3.00;;
21198;SDS011;10757;51.038;3.712;2022-08-04T11:39:49;14.50;;;4.10;;
21198;SDS011;10757;51.038;3.712;2022-08-04T11:42:22;8.82;;;2.65;;
21198;SDS011;10757;51.038;3.712;2022-08-04T11:45:02;12.25;;;3.78;;
21198;SDS011;10757;51.038;3.712;2022-08-04T11:53:01;7.45;;;2.25;;
21198;SDS011;10757;51.038;3.712;2022-08-04T11:55:27;8.45;;;2.75;;
21198;SDS011;10757;51.038;3.712;2022-08-04T11:57:55;9.88;;;2.50;;
21198;SDS011;10757;51.038;3.712;2022-08-04T12:00:23;9.82;;;2.60;;
21198;SDS011;10757;51.038;3.712;2022-08-04T12:03:14;6.50;;;2.25;;
21198;SDS011;10757;51.038;3.712;2022-08-04T12:20:29;8.32;;;2.60;;
21198;SDS011;10757;51.038;3.712;2022-08-04T12:23:02;4.57;;;1.85;;
21198;SDS011;10757;51.038;3.712;2022-08-04T12:25:33;6.88;;;1.98;;
21198;SDS011;10757;51.038;3.712;2022-08-04T12:28:14;10.85;;;3.03;;
21198;SDS011;10757;51.038;3.712;2022-08-04T12:30:50;14.35;;;2.78;;
21198;SDS011;10757;51.038;3.712;2022-08-04T12:33:30;7.15;;;2.50;;
21198;SDS011;10757;51.038;3.712;2022-08-04T12:35:59;5.30;;;2.00;;
21198;SDS011;10757;51.038;3.712;2022-08-04T12:38:33;9.07;;;5.03;;
21198;SDS011;10757;51.038;3.712;2022-08-04T12:41:00;6.97;;;1.98;;
21198;SDS011;10757;51.038;3.712;2022-08-04T12:46:11;8.90;;;1.95;;
21198;SDS011;10757;51.038;3.712;2022-08-04T12:48:44;6.72;;;2.40;;
21198;SDS011;10757;51.038;3.712;2022-08-04T12:51:13;9.25;;;2.10;;
21198;SDS011;10757;51.038;3.712;2022-08-04T12:53:40;9.80;;;2.38;;
21198;SDS011;10757;51.038;3.712;2022-08-04T12:56:08;6.25;;;2.10;;
21198;SDS011;10757;51.038;3.712;2022-08-04T12:58:37;6.63;;;2.20;;
21198;SDS011;10757;51.038;3.712;2022-08-04T13:01:06;9.23;;;2.00;;
21198;SDS011;10757;51.038;3.712;2022-08-04T13:03:43;7.82;;;1.92;;
21198;SDS011;10757;51.038;3.712;2022-08-04T13:06:23;7.88;;;2.42;;
21198;SDS011;10757;51.038;3.712;2022-08-04T13:09:04;7.18;;;2.47;;
21198;SDS011;10757;51.038;3.712;2022-08-04T13:11:45;10.48;;;2.28;;
21198;SDS011;10757;51.038;3.712;2022-08-04T13:14:17;6.93;;;2.28;;
21198;SDS011;10757;51.038;3.712;2022-08-04T13:16:45;11.75;;;2.55;;
21198;SDS011;10757;51.038;3.712;2022-08-04T13:19:11;7.05;;;2.25;;
21198;SDS011;10757;51.038;3.712;2022-08-04T13:21:44;9.85;;;2.83;;
21198;SDS011;10757;51.038;3.712;2022-08-04T13:24:13;14.38;;;2.63;;
21198;SDS011;10757;51.038;3.712;2022-08-04T13:26:54;9.07;;;2.50;;
21198;SDS011;10757;51.038;3.712;2022-08-04T13:29:41;9.48;;;2.65;;
21198;SDS011;10757;51.038;3.712;2022-08-04T13:32:19;6.32;;;2.35;;
21198;SDS011;10757;51.038;3.712;2022-08-04T13:34:48;5.90;;;2.22;;
21198;SDS011;10757;51.038;3.712;2022-08-04T13:37:16;9.63;;;2.50;;
21198;SDS011;10757;51.038;3.712;2022-08-04T13:39:47;9.10;;;2.60;;
21198;SDS011;10757;51.038;3.712;2022-08-04T13:42:15;10.63;;;2.75;;
21198;SDS011;10757;51.038;3.712;2022-08-04T13:44:46;11.10;;;3.20;;
21198;SDS011;10757;51.038;3.712;2022-08-04T13:47:14;9.88;;;2.90;;
21198;SDS011;10757;51.038;3.712;2022-08-04T13:50:30;9.43;;;3.15;;
21198;SDS011;10757;51.038;3.712;2022-08-04T13:52:33;10.57;;;3.58;;
21198;SDS011;10757;51.038;3.712;2022-08-04T13:55:06;9.05;;;3.40;;
21198;SDS011;10757;51.038;3.712;2022-08-04T13:57:43;9.18;;;3.15;;
21198;SDS011;10757;51.038;3.712;2022-08-04T14:00:14;8.02;;;3.58;;
21198;SDS011;10757;51.038;3.712;2022-08-04T14:07:54;6.82;;;2.90;;
21198;SDS011;10757;51.038;3.712;2022-08-04T14:10:33;7.40;;;3.42;;
21198;SDS011;10757;51.038;3.712;2022-08-04T14:13:02;5.55;;;3.20;;
21198;SDS011;10757;51.038;3.712;2022-08-04T14:15:35;11.13;;;3.72;;
21198;SDS011;10757;51.038;3.712;2022-08-04T14:18:23;9.48;;;4.28;;
21198;SDS011;10757;51.038;3.712;2022-08-04T14:23:27;8.80;;;2.88;;
21198;SDS011;10757;51.038;3.712;2022-08-04T14:26:24;9.60;;;2.70;;
21198;SDS011;10757;51.038;3.712;2022-08-04T14:28:49;11.93;;;4.05;;
21198;SDS011;10757;51.038;3.712;2022-08-04T14:31:20;11.70;;;2.75;;
21198;SDS011;10757;51.038;3.712;2022-08-04T14:33:47;7.28;;;2.38;;
21198;SDS011;10757;51.038;3.712;2022-08-04T14:36:17;8.18;;;2.88;;
21198;SDS011;10757;51.038;3.712;2022-08-04T14:38:54;6.40;;;2.30;;
21198;SDS011;10757;51.038;3.712;2022-08-04T14:41:26;6.60;;;2.30;;
21198;SDS011;10757;51.038;3.712;2022-08-04T14:44:02;7.38;;;2.70;;
21198;SDS011;10757;51.038;3.712;2022-08-04T14:46:28;7.72;;;2.67;;
21198;SDS011;10757;51.038;3.712;2022-08-04T14:49:10;10.57;;;3.50;;
21198;SDS011;10757;51.038;3.712;2022-08-04T14:51:53;8.35;;;3.22;;
21198;SDS011;10757;51.038;3.712;2022-08-04T14:54:24;7.43;;;2.67;;
21198;SDS011;10757;51.038;3.712;2022-08-04T14:57:03;6.78;;;2.70;;
21198;SDS011;10757;51.038;3.712;2022-08-04T14:59:48;10.65;;;2.75;;
21198;SDS011;10757;51.038;3.712;2022-08-04T15:02:16;7.47;;;2.10;;
21198;SDS011;10757;51.038;3.712;2022-08-04T15:04:42;7.07;;;2.50;;
21198;SDS011;10757;51.038;3.712;2022-08-04T15:07:10;6.13;;;2.72;;
21198;SDS011;10757;51.038;3.712;2022-08-04T15:09:36;6.78;;;1.80;;
21198;SDS011;10757;51.038;3.712;2022-08-04T15:12:02;8.32;;;2.58;;
21198;SDS011;10757;51.038;3.712;2022-08-04T15:14:29;7.10;;;2.78;;
21198;SDS011;10757;51.038;3.712;2022-08-04T15:16:55;7.68;;;3.08;;
21198;SDS011;10757;51.038;3.712;2022-08-04T15:19:21;7.38;;;2.70;;
21198;SDS011;10757;51.038;3.712;2022-08-04T15:21:48;6.93;;;2.33;;
21198;SDS011;10757;51.038;3.712;2022-08-04T15:24:14;9.40;;;2.83;;
21198;SDS011;10757;51.038;3.712;2022-08-04T15:26:41;12.18;;;3.03;;
21198;SDS011;10757;51.038;3.712;2022-08-04T15:31:47;4.25;;;2.08;;
21198;SDS011;10757;51.038;3.712;2022-08-04T15:34:14;9.77;;;3.05;;
21198;SDS011;10757;51.038;3.712;2022-08-04T15:36:46;6.13;;;2.40;;
21198;SDS011;10757;51.038;3.712;2022-08-04T15:39:19;6.95;;;2.72;;
21198;SDS011;10757;51.038;3.712;2022-08-04T15:41:52;5.68;;;2.33;;
21198;SDS011;10757;51.038;3.712;2022-08-04T15:47:36;11.02;;;3.03;;
21198;SDS011;10757;51.038;3.712;2022-08-04T15:50:09;6.40;;;2.30;;
21198;SDS011;10757;51.038;3.712;2022-08-04T15:58:18;6.28;;;2.75;;
21198;SDS011;10757;51.038;3.712;2022-08-04T16:11:56;8.05;;;2.97;;
21198;SDS011;10757;51.038;3.712;2022-08-04T16:16:43;4.75;;;1.83;;
21198;SDS011;10757;51.038;3.712;2022-08-04T16:21:47;7.85;;;3.00;;
21198;SDS011;10757;51.038;3.712;2022-08-04T16:26:57;8.25;;;2.45;;
21198;SDS011;10757;51.038;3.712;2022-08-04T16:29:27;8.85;;;2.53;;
21198;SDS011;10757;51.038;3.712;2022-08-04T16:34:36;12.25;;;2.42;;
21198;SDS011;10757;51.038;3.712;2022-08-04T16:43:07;6.57;;;2.10;;
21198;SDS011;10757;51.038;3.712;2022-08-04T16:45:39;8.27;;;2.25;;
21198;SDS011;10757;51.038;3.712;2022-08-04T16:48:09;5.57;;;1.92;;
21198;SDS011;10757;51.038;3.712;2022-08-04T16:53:25;11.18;;;2.45;;
21198;SDS011;10757;51.038;3.712;2022-08-04T16:55:53;8.73;;;2.30;;
21198;SDS011;10757;51.038;3.712;2022-08-04T16:58:27;8.48;;;2.35;;
21198;SDS011;10757;51.038;3.712;2022-08-04T17:00:55;6.32;;;2.28;;
21198;SDS011;10757;51.038;3.712;2022-08-04T17:03:21;8.57;;;2.70;;
21198;SDS011;10757;51.038;3.712;2022-08-04T17:05:47;4.45;;;1.85;;
21198;SDS011;10757;51.038;3.712;2022-08-04T17:08:13;7.28;;;2.80;;
21198;SDS011;10757;51.038;3.712;2022-08-04T17:10:41;8.20;;;2.20;;
21198;SDS011;10757;51.038;3.712;2022-08-04T17:13:19;7.93;;;1.90;;
21198;SDS011;10757;51.038;3.712;2022-08-04T17:15:54;6.80;;;2.60;;
21198;SDS011;10757;51.038;3.712;2022-08-04T17:18:25;8.68;;;2.65;;
21198;SDS011;10757;51.038;3.712;2022-08-04T17:20:53;5.82;;;2.28;;
21198;SDS011;10757;51.038;3.712;2022-08-04T17:25:52;6.45;;;2.70;;
21198;SDS011;10757;51.038;3.712;2022-08-04T17:28:22;7.88;;;2.70;;
21198;SDS011;10757;51.038;3.712;2022-08-04T17:30:48;7.88;;;2.40;;
21198;SDS011;10757;51.038;3.712;2022-08-04T17:33:16;7.75;;;2.75;;
21198;SDS011;10757;51.038;3.712;2022-08-04T17:35:45;5.60;;;1.92;;
21198;SDS011;10757;51.038;3.712;2022-08-04T17:38:11;8.80;;;1.98;;
21198;SDS011;10757;51.038;3.712;2022-08-04T17:40:52;9.48;;;2.70;;
21198;SDS011;10757;51.038;3.712;2022-08-04T17:46:26;8.38;;;2.78;;
21198;SDS011;10757;51.038;3.712;2022-08-04T17:51:49;6.13;;;2.05;;
21198;SDS011;10757;51.038;3.712;2022-08-04T17:54:34;6.45;;;2.47;;
21198;SDS011;10757;51.038;3.712;2022-08-04T17:57:20;8.15;;;2.22;;
21198;SDS011;10757;51.038;3.712;2022-08-04T17:59:56;15.82;;;2.80;;
21198;SDS011;10757;51.038;3.712;2022-08-04T18:02:23;6.47;;;2.30;;
21198;SDS011;10757;51.038;3.712;2022-08-04T18:04:51;7.50;;;2.50;;
21198;SDS011;10757;51.038;3.712;2022-08-04T18:14:56;7.70;;;2.40;;
21198;SDS011;10757;51.038;3.712;2022-08-04T18:17:39;8.50;;;2.40;;
21198;SDS011;10757;51.038;3.712;2022-08-04T18:20:17;6.18;;;2.53;;
21198;SDS011;10757;51.038;3.712;2022-08-04T18:22:45;10.02;;;2.38;;
21198;SDS011;10757;51.038;3.712;2022-08-04T18:25:13;4.63;;;2.00;;
21198;SDS011;10757;51.038;3.712;2022-08-04T18:27:47;8.32;;;2.30;;
21198;SDS011;10757;51.038;3.712;2022-08-04T18:30:20;6.65;;;2.33;;
21198;SDS011;10757;51.038;3.712;2022-08-04T18:32:48;10.45;;;2.45;;
21198;SDS011;10757;51.038;3.712;2022-08-04T18:35:14;10.40;;;2.65;;
21198;SDS011;10757;51.038;3.712;2022-08-04T18:37:40;7.68;;;2.60;;
21198;SDS011;10757;51.038;3.712;2022-08-04T18:40:07;9.27;;;2.20;;
21198;SDS011;10757;51.038;3.712;2022-08-04T18:42:34;7.45;;;2.47;;
21198;SDS011;10757;51.038;3.712;2022-08-04T18:45:00;9.25;;;2.60;;
21198;SDS011;10757;51.038;3.712;2022-08-04T18:47:27;8.50;;;2.75;;
21198;SDS011;10757;51.038;3.712;2022-08-04T18:49:53;11.40;;;3.35;;
21198;SDS011;10757;51.038;3.712;2022-08-04T18:52:20;8.43;;;2.55;;
21198;SDS011;10757;51.038;3.712;2022-08-04T18:54:46;4.38;;;1.95;;
21198;SDS011;10757;51.038;3.712;2022-08-04T18:57:19;7.28;;;2.53;;
21198;SDS011;10757;51.038;3.712;2022-08-04T18:59:45;8.00;;;2.70;;
21198;SDS011;10757;51.038;3.712;2022-08-04T19:02:11;11.73;;;2.90;;
21198;SDS011;10757;51.038;3.712;2022-08-04T19:04:37;11.35;;;2.50;;
21198;SDS011;10757;51.038;3.712;2022-08-04T19:07:04;6.50;;;2.05;;
21198;SDS011;10757;51.038;3.712;2022-08-04T19:09:30;6.30;;;2.20;;
21198;SDS011;10757;51.038;3.712;2022-08-04T19:11:55;12.02;;;2.42;;
21198;SDS011;10757;51.038;3.712;2022-08-04T19:14:22;7.63;;;2.38;;
21198;SDS011;10757;51.038;3.712;2022-08-04T19:16:48;9.20;;;2.75;;
21198;SDS011;10757;51.038;3.712;2022-08-04T19:19:13;8.73;;;2.17;;
21198;SDS011;10757;51.038;3.712;2022-08-04T19:21:41;7.88;;;2.30;;
21198;SDS011;10757;51.038;3.712;2022-08-04T19:24:06;9.07;;;2.83;;
21198;SDS011;10757;51.038;3.712;2022-08-04T19:26:32;7.57;;;2.47;;
21198;SDS011;10757;51.038;3.712;2022-08-04T19:29:00;7.40;;;2.55;;
21198;SDS011;10757;51.038;3.712;2022-08-04T19:31:26;8.82;;;2.30;;
21198;SDS011;10757;51.038;3.712;2022-08-04T19:33:52;9.43;;;2.45;;
21198;SDS011;10757;51.038;3.712;2022-08-04T19:36:19;6.68;;;2.42;;
21198;SDS011;10757;51.038;3.712;2022-08-04T19:38:45;8.38;;;2.33;;
21198;SDS011;10757;51.038;3.712;2022-08-04T19:41:11;7.50;;;2.03;;
21198;SDS011;10757;51.038;3.712;2022-08-04T19:43:37;7.90;;;1.90;;
21198;SDS011;10757;51.038;3.712;2022-08-04T19:46:04;7.28;;;2.05;;
21198;SDS011;10757;51.038;3.712;2022-08-04T19:48:29;11.05;;;2.45;;
21198;SDS011;10757;51.038;3.712;2022-08-04T19:50:55;5.05;;;1.90;;
21198;SDS011;10757;51.038;3.712;2022-08-04T19:53:21;8.18;;;2.88;;
21198;SDS011;10757;51.038;3.712;2022-08-04T19:55:47;6.30;;;1.98;;
21198;SDS011;10757;51.038;3.712;2022-08-04T19:58:13;7.05;;;3.13;;
21198;SDS011;10757;51.038;3.712;2022-08-04T20:00:39;5.65;;;1.85;;
21198;SDS011;10757;51.038;3.712;2022-08-04T20:03:05;8.63;;;1.95;;
21198;SDS011;10757;51.038;3.712;2022-08-04T20:05:33;9.30;;;2.33;;